sensor_id;sensor_type;location;lat;lon;timestamp;pressure;altitude;pressure_sealevel;temperature;humidity
41312;BME280;27061;41.648;24.568;2023-05-19T00:01:44;85943.41;;;9.84;80.82
41312;BME280;27061;41.648;24.568;2023-05-19T00:04:14;85848.59;;;9.20;81.33
41312;BME280;27061;41.648;24.568;2023-05-19T00:06:42;85903.50;;;9.61;81.63
41312;BME280;27061;41.648;24.568;2023-05-19T00:09:14;85851.31;;;9.26;80.84
41312;BME280;27061;41.648;24.568;2023-05-19T00:11:41;85845.84;;;9.18;81.41
41312;BME280;27061;41.648;24.568;2023-05-19T00:14:09;85943.34;;;9.90;81.12
41312;BME280;27061;41.648;24.568;2023-05-19T00:16:37;85924.00;;;9.86;81.45
41312;BME280;27061;41.648;24.568;2023-05-19T00:19:05;85926.75;;;9.90;81.39
41312;BME280;27061;41.648;24.568;2023-05-19T00:21:36;85843.19;;;9.08;81.13
41312;BME280;27061;41.648;24.568;2023-05-19T00:24:05;85888.31;;;9.60;81.71
41312;BME280;27061;41.648;24.568;2023-05-19T00:26:36;85882.09;;;9.59;81.16
41312;BME280;27061;41.648;24.568;2023-05-19T00:29:04;85862.84;;;9.51;81.16
41312;BME280;27061;41.648;24.568;2023-05-19T00:31:31;85904.66;;;9.86;81.25
41312;BME280;27061;41.648;24.568;2023-05-19T00:34:00;85934.25;;;10.02;80.83
41312;BME280;27061;41.648;24.568;2023-05-19T00:36:27;85943.31;;;9.94;81.50
41312;BME280;27061;41.648;24.568;2023-05-19T00:38:54;85858.16;;;9.33;81.54
41312;BME280;27061;41.648;24.568;2023-05-19T00:41:22;85753.13;;;8.60;81.92
41312;BME280;27061;41.648;24.568;2023-05-19T00:43:49;85933.56;;;10.01;80.99
41312;BME280;27061;41.648;24.568;2023-05-19T00:46:18;85747.72;;;8.46;82.42
41312;BME280;27061;41.648;24.568;2023-05-19T00:48:46;85826.63;;;9.04;81.96
41312;BME280;27061;41.648;24.568;2023-05-19T00:51:13;85753.97;;;8.38;82.72
41312;BME280;27061;41.648;24.568;2023-05-19T00:53:43;85839.63;;;9.22;82.13
41312;BME280;27061;41.648;24.568;2023-05-19T00:56:15;85851.22;;;9.34;82.56
41312;BME280;27061;41.648;24.568;2023-05-19T00:58:45;85884.88;;;9.57;82.00
41312;BME280;27061;41.648;24.568;2023-05-19T01:01:13;85918.56;;;9.78;82.72
41312;BME280;27061;41.648;24.568;2023-05-19T01:03:43;85915.00;;;9.89;82.00
41312;BME280;27061;41.648;24.568;2023-05-19T01:06:11;85914.31;;;9.87;81.86
41312;BME280;27061;41.648;24.568;2023-05-19T01:08:38;85909.44;;;9.94;81.46
41312;BME280;27061;41.648;24.568;2023-05-19T01:11:07;85870.44;;;9.50;81.56
41312;BME280;27061;41.648;24.568;2023-05-19T01:13:35;85921.22;;;9.90;81.96
41312;BME280;27061;41.648;24.568;2023-05-19T01:32:22;85855.34;;;9.41;81.71
41312;BME280;27061;41.648;24.568;2023-05-19T01:34:51;85919.91;;;9.81;82.16
41312;BME280;27061;41.648;24.568;2023-05-19T01:37:20;85914.38;;;9.83;82.25
41312;BME280;27061;41.648;24.568;2023-05-19T01:39:51;85913.09;;;9.74;82.35
41312;BME280;27061;41.648;24.568;2023-05-19T01:42:19;85868.50;;;9.33;83.45
41312;BME280;27061;41.648;24.568;2023-05-19T01:44:46;85855.47;;;9.25;84.19
41312;BME280;27061;41.648;24.568;2023-05-19T01:47:14;85820.56;;;8.87;84.78
41312;BME280;27061;41.648;24.568;2023-05-19T01:49:41;85913.13;;;9.68;83.88
41312;BME280;27061;41.648;24.568;2023-05-19T01:52:09;85949.78;;;9.64;83.73
41312;BME280;27061;41.648;24.568;2023-05-19T01:54:36;85864.44;;;9.24;84.44
41312;BME280;27061;41.648;24.568;2023-05-19T01:57:28;85820.47;;;8.97;84.14
41312;BME280;27061;41.648;24.568;2023-05-19T02:08:45;85920.03;;;9.69;83.86
41312;BME280;27061;41.648;24.568;2023-05-19T02:11:39;85920.03;;;9.67;83.75
41312;BME280;27061;41.648;24.568;2023-05-19T02:14:15;85876.16;;;9.30;84.37
41312;BME280;27061;41.648;24.568;2023-05-19T02:16:45;85915.94;;;9.62;84.27
41312;BME280;27061;41.648;24.568;2023-05-19T02:19:24;85922.91;;;9.54;84.41
41312;BME280;27061;41.648;24.568;2023-05-19T02:21:53;85912.00;;;9.36;85.27
41312;BME280;27061;41.648;24.568;2023-05-19T02:24:21;85833.66;;;8.89;84.17
41312;BME280;27061;41.648;24.568;2023-05-19T02:26:51;85891.97;;;9.34;83.35
41312;BME280;27061;41.648;24.568;2023-05-19T02:29:19;85927.72;;;9.58;83.77
41312;BME280;27061;41.648;24.568;2023-05-19T02:31:49;85934.63;;;9.59;84.34
41312;BME280;27061;41.648;24.568;2023-05-19T02:34:17;85929.88;;;9.47;85.71
41312;BME280;27061;41.648;24.568;2023-05-19T02:36:45;85869.50;;;8.91;85.15
41312;BME280;27061;41.648;24.568;2023-05-19T02:39:15;85725.19;;;8.06;84.95
41312;BME280;27061;41.648;24.568;2023-05-19T02:41:42;85694.44;;;7.67;85.10
41312;BME280;27061;41.648;24.568;2023-05-19T02:44:09;85722.41;;;8.15;84.76
41312;BME280;27061;41.648;24.568;2023-05-19T02:46:36;85778.66;;;8.58;84.48
41312;BME280;27061;41.648;24.568;2023-05-19T02:49:04;85821.34;;;8.69;84.68
41312;BME280;27061;41.648;24.568;2023-05-19T02:51:31;85710.09;;;7.95;83.69
41312;BME280;27061;41.648;24.568;2023-05-19T02:53:58;85837.75;;;8.96;83.50
41312;BME280;27061;41.648;24.568;2023-05-19T02:56:25;85559.16;;;7.06;81.90
41312;BME280;27061;41.648;24.568;2023-05-19T02:58:54;85649.69;;;7.63;82.67
41312;BME280;27061;41.648;24.568;2023-05-19T03:01:22;85668.06;;;7.95;82.25
41312;BME280;27061;41.648;24.568;2023-05-19T03:03:49;85930.94;;;9.85;82.08
41312;BME280;27061;41.648;24.568;2023-05-19T03:06:17;85814.19;;;9.07;82.45
41312;BME280;27061;41.648;24.568;2023-05-19T03:08:44;85649.66;;;7.65;81.69
41312;BME280;27061;41.648;24.568;2023-05-19T03:11:11;85674.44;;;7.73;82.13
41312;BME280;27061;41.648;24.568;2023-05-19T03:13:38;85924.06;;;9.80;82.79
41312;BME280;27061;41.648;24.568;2023-05-19T03:16:05;85694.38;;;7.78;83.63
41312;BME280;27061;41.648;24.568;2023-05-19T03:18:34;85830.06;;;9.08;83.73
41312;BME280;27061;41.648;24.568;2023-05-19T03:21:02;85916.56;;;9.70;82.04
41312;BME280;27061;41.648;24.568;2023-05-19T03:23:29;85955.66;;;10.03;82.06
41312;BME280;27061;41.648;24.568;2023-05-19T03:25:56;85957.16;;;9.90;82.39
41312;BME280;27061;41.648;24.568;2023-05-19T03:28:23;85893.31;;;9.41;82.53
41312;BME280;27061;41.648;24.568;2023-05-19T03:30:53;85956.56;;;9.79;82.49
41312;BME280;27061;41.648;24.568;2023-05-19T03:33:23;85977.28;;;9.82;82.76
41312;BME280;27061;41.648;24.568;2023-05-19T03:35:51;85758.84;;;8.33;82.68
41312;BME280;27061;41.648;24.568;2023-05-19T03:38:19;85730.69;;;8.13;83.78
41312;BME280;27061;41.648;24.568;2023-05-19T03:40:51;85913.31;;;9.43;84.31
41312;BME280;27061;41.648;24.568;2023-05-19T03:43:19;85963.72;;;9.52;85.61
41312;BME280;27061;41.648;24.568;2023-05-19T03:45:52;85968.50;;;9.58;86.44
41312;BME280;27061;41.648;24.568;2023-05-19T03:48:42;85968.50;;;9.55;86.38
41312;BME280;27061;41.648;24.568;2023-05-19T03:51:27;85969.16;;;9.60;86.63
41312;BME280;27061;41.648;24.568;2023-05-19T03:54:03;85949.25;;;9.43;86.50
41312;BME280;27061;41.648;24.568;2023-05-19T03:56:30;85970.56;;;9.57;86.15
41312;BME280;27061;41.648;24.568;2023-05-19T03:58:58;85917.63;;;9.22;86.60
41312;BME280;27061;41.648;24.568;2023-05-19T04:01:25;85920.28;;;9.36;84.99
41312;BME280;27061;41.648;24.568;2023-05-19T04:03:53;85940.25;;;9.47;84.41
41312;BME280;27061;41.648;24.568;2023-05-19T04:06:21;85972.53;;;9.69;85.47
41312;BME280;27061;41.648;24.568;2023-05-19T04:08:49;85982.19;;;9.74;85.80
41312;BME280;27061;41.648;24.568;2023-05-19T04:11:16;85981.47;;;9.77;85.46
41312;BME280;27061;41.648;24.568;2023-05-19T04:13:45;85920.28;;;9.36;86.31
41312;BME280;27061;41.648;24.568;2023-05-19T04:16:13;86000.72;;;9.89;86.22
41312;BME280;27061;41.648;24.568;2023-05-19T04:18:40;85855.69;;;8.97;86.30
41312;BME280;27061;41.648;24.568;2023-05-19T04:21:08;85769.91;;;8.25;85.95
41312;BME280;27061;41.648;24.568;2023-05-19T04:23:36;85945.38;;;9.02;89.46
41312;BME280;27061;41.648;24.568;2023-05-19T04:26:04;85969.19;;;9.56;88.75
41312;BME280;27061;41.648;24.568;2023-05-19T04:28:32;85836.69;;;8.46;88.64
41312;BME280;27061;41.648;24.568;2023-05-19T04:31:04;85741.78;;;8.00;88.41
41312;BME280;27061;41.648;24.568;2023-05-19T04:33:37;85820.03;;;8.60;88.72
41312;BME280;27061;41.648;24.568;2023-05-19T04:36:06;85725.31;;;7.92;87.85
41312;BME280;27061;41.648;24.568;2023-05-19T04:38:39;85940.84;;;9.60;87.61
41312;BME280;27061;41.648;24.568;2023-05-19T04:41:09;85824.03;;;8.81;87.42
41312;BME280;27061;41.648;24.568;2023-05-19T04:43:36;85959.94;;;9.90;87.98
41312;BME280;27061;41.648;24.568;2023-05-19T04:46:08;85732.09;;;8.09;86.93
41312;BME280;27061;41.648;24.568;2023-05-19T04:48:40;85715.59;;;8.01;84.91
41312;BME280;27061;41.648;24.568;2023-05-19T04:51:08;85999.78;;;10.21;85.26
41312;BME280;27061;41.648;24.568;2023-05-19T04:53:35;85775.88;;;8.62;87.93
41312;BME280;27061;41.648;24.568;2023-05-19T04:56:05;85729.31;;;8.16;87.29
41312;BME280;27061;41.648;24.568;2023-05-19T04:58:33;86033.53;;;10.38;85.33
41312;BME280;27061;41.648;24.568;2023-05-19T05:01:00;85804.72;;;8.81;82.53
41312;BME280;27061;41.648;24.568;2023-05-19T05:03:28;85774.44;;;8.69;83.87
41312;BME280;27061;41.648;24.568;2023-05-19T05:05:56;85856.22;;;9.17;83.49
41312;BME280;27061;41.648;24.568;2023-05-19T05:08:24;85845.72;;;9.34;82.91
41312;BME280;27061;41.648;24.568;2023-05-19T05:10:53;85801.84;;;8.94;84.12
41312;BME280;27061;41.648;24.568;2023-05-19T05:13:22;85753.13;;;8.62;87.81
41312;BME280;27061;41.648;24.568;2023-05-19T05:15:49;85774.31;;;8.86;87.24
41312;BME280;27061;41.648;24.568;2023-05-19T05:18:18;85756.03;;;8.43;89.11
41312;BME280;27061;41.648;24.568;2023-05-19T05:20:45;85808.66;;;9.05;88.17
41312;BME280;27061;41.648;24.568;2023-05-19T05:23:14;85914.31;;;9.87;87.40
41312;BME280;27061;41.648;24.568;2023-05-19T05:25:45;85841.63;;;9.29;85.75
41312;BME280;27061;41.648;24.568;2023-05-19T05:28:14;85871.06;;;9.59;85.62
41312;BME280;27061;41.648;24.568;2023-05-19T05:30:42;85969.09;;;10.46;86.26
41312;BME280;27061;41.648;24.568;2023-05-19T05:33:12;86022.66;;;10.85;87.01
41312;BME280;27061;41.648;24.568;2023-05-19T05:35:40;85980.06;;;10.56;89.18
41312;BME280;27061;41.648;24.568;2023-05-19T05:38:10;85993.78;;;10.68;88.58
41312;BME280;27061;41.648;24.568;2023-05-19T05:40:38;85992.41;;;10.67;90.24
41312;BME280;27061;41.648;24.568;2023-05-19T05:43:07;85970.41;;;10.51;92.17
41312;BME280;27061;41.648;24.568;2023-05-19T05:45:40;86009.47;;;10.88;93.06
41312;BME280;27061;41.648;24.568;2023-05-19T05:48:08;86039.69;;;11.10;90.34
41312;BME280;27061;41.648;24.568;2023-05-19T05:50:35;85994.38;;;10.77;89.60
41312;BME280;27061;41.648;24.568;2023-05-19T05:53:05;86047.09;;;11.28;86.05
41312;BME280;27061;41.648;24.568;2023-05-19T05:55:35;86058.16;;;11.30;83.99
41312;BME280;27061;41.648;24.568;2023-05-19T05:58:05;85726.63;;;8.91;84.59
41312;BME280;27061;41.648;24.568;2023-05-19T06:00:32;85835.59;;;9.80;85.49
41312;BME280;27061;41.648;24.568;2023-05-19T06:03:00;86038.53;;;11.46;85.29
41312;BME280;27061;41.648;24.568;2023-05-19T06:05:30;86053.28;;;11.32;86.19
41312;BME280;27061;41.648;24.568;2023-05-19T06:07:57;85814.28;;;9.68;84.45
41312;BME280;27061;41.648;24.568;2023-05-19T06:10:27;85926.00;;;10.63;86.83
41312;BME280;27061;41.648;24.568;2023-05-19T06:12:54;86005.41;;;11.36;85.57
41312;BME280;27061;41.648;24.568;2023-05-19T06:15:22;86047.16;;;11.77;82.10
41312;BME280;27061;41.648;24.568;2023-05-19T06:18:09;85937.66;;;10.72;83.02
41312;BME280;27061;41.648;24.568;2023-05-19T06:20:38;85744.06;;;9.45;83.22
41312;BME280;27061;41.648;24.568;2023-05-19T06:23:05;86075.78;;;12.15;83.71
41312;BME280;27061;41.648;24.568;2023-05-19T06:25:32;85843.06;;;10.53;81.81
41312;BME280;27061;41.648;24.568;2023-05-19T06:28:01;85966.41;;;11.01;81.66
41312;BME280;27061;41.648;24.568;2023-05-19T06:30:28;86011.22;;;11.67;85.61
41312;BME280;27061;41.648;24.568;2023-05-19T06:33:16;86054.31;;;12.11;78.64
41312;BME280;27061;41.648;24.568;2023-05-19T06:35:43;86048.78;;;12.09;81.38
41312;BME280;27061;41.648;24.568;2023-05-19T06:38:10;86006.00;;;11.96;74.87
41312;BME280;27061;41.648;24.568;2023-05-19T06:40:37;85999.22;;;11.85;78.06
41312;BME280;27061;41.648;24.568;2023-05-19T06:43:04;85982.75;;;11.70;79.94
41312;BME280;27061;41.648;24.568;2023-05-19T06:45:51;86076.16;;;12.35;78.54
41312;BME280;27061;41.648;24.568;2023-05-19T06:48:19;86025.41;;;11.96;80.23
41312;BME280;27061;41.648;24.568;2023-05-19T06:50:46;86081.66;;;12.39;77.57
41312;BME280;27061;41.648;24.568;2023-05-19T06:53:16;86082.97;;;12.44;78.96
41312;BME280;27061;41.648;24.568;2023-05-19T06:55:44;86033.50;;;12.10;80.23
41312;BME280;27061;41.648;24.568;2023-05-19T06:58:27;86029.34;;;12.11;79.44
41312;BME280;27061;41.648;24.568;2023-05-19T07:00:55;86099.16;;;12.73;75.74
41312;BME280;27061;41.648;24.568;2023-05-19T07:03:26;86090.78;;;12.75;76.78
41312;BME280;27061;41.648;24.568;2023-05-19T07:05:54;85998.72;;;12.17;78.29
41312;BME280;27061;41.648;24.568;2023-05-19T07:08:21;86091.09;;;12.98;75.41
41312;BME280;27061;41.648;24.568;2023-05-19T07:10:48;86034.19;;;12.56;72.32
41312;BME280;27061;41.648;24.568;2023-05-19T07:13:16;86023.81;;;12.52;71.24
41312;BME280;27061;41.648;24.568;2023-05-19T07:15:43;86086.97;;;12.95;72.11
41312;BME280;27061;41.648;24.568;2023-05-19T07:18:11;86070.56;;;12.80;73.06
41312;BME280;27061;41.648;24.568;2023-05-19T07:20:38;86086.81;;;13.05;76.16
41312;BME280;27061;41.648;24.568;2023-05-19T07:23:05;86033.38;;;12.61;78.54
41312;BME280;27061;41.648;24.568;2023-05-19T07:25:34;86075.63;;;13.09;79.60
41312;BME280;27061;41.648;24.568;2023-05-19T07:28:01;86058.31;;;13.04;74.26
41312;BME280;27061;41.648;24.568;2023-05-19T07:30:28;86101.72;;;13.28;75.98
41312;BME280;27061;41.648;24.568;2023-05-19T07:32:56;86102.34;;;13.33;75.76
41312;BME280;27061;41.648;24.568;2023-05-19T07:35:25;85929.38;;;12.15;70.60
41312;BME280;27061;41.648;24.568;2023-05-19T07:37:52;86056.13;;;13.11;73.18
41312;BME280;27061;41.648;24.568;2023-05-19T07:40:19;85965.59;;;12.48;75.80
41312;BME280;27061;41.648;24.568;2023-05-19T07:42:48;86057.44;;;13.16;75.77
41312;BME280;27061;41.648;24.568;2023-05-19T07:45:17;86055.44;;;13.10;76.48
41312;BME280;27061;41.648;24.568;2023-05-19T07:47:44;86093.03;;;13.46;73.06
41312;BME280;27061;41.648;24.568;2023-05-19T07:50:11;86051.41;;;13.03;74.99
41312;BME280;27061;41.648;24.568;2023-05-19T07:52:38;86049.28;;;13.06;72.35
41312;BME280;27061;41.648;24.568;2023-05-19T07:55:05;86138.13;;;13.51;74.62
41312;BME280;27061;41.648;24.568;2023-05-19T07:57:33;86029.66;;;12.77;73.57
41312;BME280;27061;41.648;24.568;2023-05-19T08:00:00;86074.97;;;13.06;74.58
41312;BME280;27061;41.648;24.568;2023-05-19T08:02:37;86088.81;;;13.10;73.31
41312;BME280;27061;41.648;24.568;2023-05-19T08:05:04;86139.66;;;13.44;72.89
41312;BME280;27061;41.648;24.568;2023-05-19T08:07:32;86127.38;;;13.31;76.69
41312;BME280;27061;41.648;24.568;2023-05-19T08:09:59;86120.66;;;13.17;78.18
41312;BME280;27061;41.648;24.568;2023-05-19T08:12:26;85967.09;;;11.98;78.27
41312;BME280;27061;41.648;24.568;2023-05-19T08:14:53;85929.88;;;11.85;78.09
41312;BME280;27061;41.648;24.568;2023-05-19T08:17:20;85969.69;;;12.10;79.01
41312;BME280;27061;41.648;24.568;2023-05-19T08:19:47;86142.16;;;13.58;82.96
41312;BME280;27061;41.648;24.568;2023-05-19T08:22:14;86153.81;;;13.67;79.89
41312;BME280;27061;41.648;24.568;2023-05-19T08:24:42;86131.84;;;13.52;76.56
41312;BME280;27061;41.648;24.568;2023-05-19T08:27:10;86078.88;;;13.24;75.49
41312;BME280;27061;41.648;24.568;2023-05-19T08:29:37;86150.19;;;13.76;76.60
41312;BME280;27061;41.648;24.568;2023-05-19T08:32:05;86133.53;;;13.74;78.42
41312;BME280;27061;41.648;24.568;2023-05-19T08:34:32;85977.13;;;12.63;78.19
41312;BME280;27061;41.648;24.568;2023-05-19T08:36:59;86097.59;;;13.62;78.06
41312;BME280;27061;41.648;24.568;2023-05-19T08:39:26;86047.09;;;13.12;79.47
41312;BME280;27061;41.648;24.568;2023-05-19T08:41:54;85950.63;;;12.70;78.75
41312;BME280;27061;41.648;24.568;2023-05-19T08:44:21;85965.59;;;12.85;78.35
41312;BME280;27061;41.648;24.568;2023-05-19T08:46:50;86141.03;;;14.17;76.45
41312;BME280;27061;41.648;24.568;2023-05-19T08:49:26;86151.75;;;14.37;74.64
41312;BME280;27061;41.648;24.568;2023-05-19T08:52:08;86159.38;;;14.41;74.92
41312;BME280;27061;41.648;24.568;2023-05-19T08:54:51;86009.78;;;13.36;74.46
41312;BME280;27061;41.648;24.568;2023-05-19T08:57:21;86108.78;;;13.95;73.23
41312;BME280;27061;41.648;24.568;2023-05-19T08:59:51;86057.34;;;13.57;75.11
41312;BME280;27061;41.648;24.568;2023-05-19T09:02:18;86165.59;;;14.41;75.79
41312;BME280;27061;41.648;24.568;2023-05-19T09:04:47;86069.03;;;13.66;72.12
41312;BME280;27061;41.648;24.568;2023-05-19T09:07:15;85899.72;;;12.44;73.98
41312;BME280;27061;41.648;24.568;2023-05-19T09:09:42;86098.16;;;14.04;69.38
41312;BME280;27061;41.648;24.568;2023-05-19T09:12:10;86019.91;;;13.52;75.09
41312;BME280;27061;41.648;24.568;2023-05-19T09:14:37;86097.13;;;14.19;73.20
41312;BME280;27061;41.648;24.568;2023-05-19T09:17:05;86155.72;;;14.79;70.98
41312;BME280;27061;41.648;24.568;2023-05-19T09:19:32;86144.31;;;14.91;65.15
41312;BME280;27061;41.648;24.568;2023-05-19T09:22:01;85959.47;;;13.50;73.62
41312;BME280;27061;41.648;24.568;2023-05-19T09:24:33;86074.94;;;14.48;65.88
41312;BME280;27061;41.648;24.568;2023-05-19T09:27:00;86110.31;;;14.54;67.80
41312;BME280;27061;41.648;24.568;2023-05-19T09:29:28;86050.88;;;14.02;72.17
41312;BME280;27061;41.648;24.568;2023-05-19T09:31:55;86134.47;;;14.63;66.25
41312;BME280;27061;41.648;24.568;2023-05-19T09:34:26;86080.78;;;14.34;67.68
41312;BME280;27061;41.648;24.568;2023-05-19T09:36:54;86040.91;;;14.11;71.67
41312;BME280;27061;41.648;24.568;2023-05-19T09:39:22;86100.94;;;14.68;72.86
41312;BME280;27061;41.648;24.568;2023-05-19T09:41:52;86057.84;;;14.32;67.44
41312;BME280;27061;41.648;24.568;2023-05-19T09:44:26;85978.41;;;13.75;71.63
41312;BME280;27061;41.648;24.568;2023-05-19T09:46:57;86090.72;;;14.58;64.07
41312;BME280;27061;41.648;24.568;2023-05-19T09:49:29;86119.16;;;14.93;70.12
41312;BME280;27061;41.648;24.568;2023-05-19T09:52:01;86132.19;;;15.03;73.63
41312;BME280;27061;41.648;24.568;2023-05-19T09:54:29;86104.69;;;14.87;63.87
41312;BME280;27061;41.648;24.568;2023-05-19T09:56:59;86143.34;;;15.03;65.05
41312;BME280;27061;41.648;24.568;2023-05-19T09:59:27;86103.00;;;14.69;66.84
41312;BME280;27061;41.648;24.568;2023-05-19T10:01:59;86161.44;;;15.04;67.13
41312;BME280;27061;41.648;24.568;2023-05-19T10:04:29;86165.47;;;15.09;68.53
41312;BME280;27061;41.648;24.568;2023-05-19T10:06:57;85985.66;;;13.92;67.12
41312;BME280;27061;41.648;24.568;2023-05-19T10:09:27;86013.09;;;14.11;70.47
41312;BME280;27061;41.648;24.568;2023-05-19T10:11:56;86176.72;;;15.36;72.10
41312;BME280;27061;41.648;24.568;2023-05-19T10:14:25;86185.34;;;15.53;71.77
41312;BME280;27061;41.648;24.568;2023-05-19T10:16:54;86128.00;;;15.31;74.49
41312;BME280;27061;41.648;24.568;2023-05-19T10:19:26;86095.44;;;15.23;70.19
41312;BME280;27061;41.648;24.568;2023-05-19T10:21:54;86141.69;;;15.70;72.41
41312;BME280;27061;41.648;24.568;2023-05-19T10:24:22;86029.00;;;14.76;67.80
41312;BME280;27061;41.648;24.568;2023-05-19T10:26:57;86146.28;;;15.53;68.40
41312;BME280;27061;41.648;24.568;2023-05-19T10:29:30;86141.06;;;15.38;64.58
41312;BME280;27061;41.648;24.568;2023-05-19T10:32:00;86169.53;;;15.72;66.49
41312;BME280;27061;41.648;24.568;2023-05-19T10:37:12;86169.44;;;15.76;67.31
41312;BME280;27061;41.648;24.568;2023-05-19T10:39:43;86110.53;;;15.32;67.96
41312;BME280;27061;41.648;24.568;2023-05-19T10:42:37;86178.25;;;15.87;66.67
41312;BME280;27061;41.648;24.568;2023-05-19T10:47:33;86161.81;;;15.74;63.13
41312;BME280;27061;41.648;24.568;2023-05-19T10:50:01;86031.19;;;14.72;66.04
41312;BME280;27061;41.648;24.568;2023-05-19T10:52:30;86094.19;;;15.16;67.31
41312;BME280;27061;41.648;24.568;2023-05-19T10:54:59;86168.78;;;16.00;67.94
41312;BME280;27061;41.648;24.568;2023-05-19T10:57:27;86155.72;;;16.20;67.19
41312;BME280;27061;41.648;24.568;2023-05-19T10:59:55;86139.16;;;16.11;71.04
41312;BME280;27061;41.648;24.568;2023-05-19T11:02:42;86146.66;;;16.44;68.12
41312;BME280;27061;41.648;24.568;2023-05-19T11:05:13;86047.88;;;15.81;69.27
41312;BME280;27061;41.648;24.568;2023-05-19T11:07:58;86151.69;;;16.64;65.88
41312;BME280;27061;41.648;24.568;2023-05-19T11:10:33;86146.09;;;16.64;61.11
41312;BME280;27061;41.648;24.568;2023-05-19T11:13:00;86095.91;;;16.10;59.68
41312;BME280;27061;41.648;24.568;2023-05-19T11:15:35;86109.44;;;16.27;59.81
41312;BME280;27061;41.648;24.568;2023-05-19T11:18:03;85974.41;;;15.12;61.16
41312;BME280;27061;41.648;24.568;2023-05-19T11:20:31;86178.31;;;16.61;59.41
41312;BME280;27061;41.648;24.568;2023-05-19T11:23:07;86191.88;;;16.51;62.40
41312;BME280;27061;41.648;24.568;2023-05-19T11:25:55;86157.75;;;16.21;61.58
41312;BME280;27061;41.648;24.568;2023-05-19T11:28:22;86161.38;;;16.18;61.74
41312;BME280;27061;41.648;24.568;2023-05-19T11:30:53;86136.38;;;15.87;62.52
41312;BME280;27061;41.648;24.568;2023-05-19T11:33:20;86196.34;;;16.41;61.12
41312;BME280;27061;41.648;24.568;2023-05-19T11:35:56;86108.25;;;15.68;60.64
41312;BME280;27061;41.648;24.568;2023-05-19T11:38:25;86157.84;;;16.19;62.53
41312;BME280;27061;41.648;24.568;2023-05-19T11:40:57;86143.25;;;15.90;59.83
41312;BME280;27061;41.648;24.568;2023-05-19T11:43:25;86153.38;;;15.77;56.38
41312;BME280;27061;41.648;24.568;2023-05-19T11:45:53;86179.78;;;16.08;58.47
41312;BME280;27061;41.648;24.568;2023-05-19T11:48:21;86171.22;;;16.15;61.71
41312;BME280;27061;41.648;24.568;2023-05-19T11:50:48;86134.81;;;15.67;59.69
41312;BME280;27061;41.648;24.568;2023-05-19T11:53:16;86116.47;;;15.74;59.34
41312;BME280;27061;41.648;24.568;2023-05-19T11:55:46;86191.00;;;16.06;58.82
41312;BME280;27061;41.648;24.568;2023-05-19T11:58:15;86177.66;;;15.82;58.87
41312;BME280;27061;41.648;24.568;2023-05-19T12:00:43;86151.00;;;15.60;60.30
41312;BME280;27061;41.648;24.568;2023-05-19T12:03:12;86166.03;;;15.73;62.96
41312;BME280;27061;41.648;24.568;2023-05-19T12:05:43;86215.91;;;16.15;64.17
41312;BME280;27061;41.648;24.568;2023-05-19T12:08:16;86074.22;;;14.79;66.41
41312;BME280;27061;41.648;24.568;2023-05-19T12:10:47;86205.69;;;15.78;65.55
41312;BME280;27061;41.648;24.568;2023-05-19T12:13:18;86166.06;;;15.43;66.35
41312;BME280;27061;41.648;24.568;2023-05-19T12:15:45;86183.75;;;15.62;66.44
41312;BME280;27061;41.648;24.568;2023-05-19T12:18:13;86108.22;;;15.14;67.35
41312;BME280;27061;41.648;24.568;2023-05-19T12:20:40;86208.78;;;15.93;67.21
41312;BME280;27061;41.648;24.568;2023-05-19T12:23:07;86083.53;;;14.96;66.53
41312;BME280;27061;41.648;24.568;2023-05-19T12:25:35;86004.91;;;14.34;67.20
41312;BME280;27061;41.648;24.568;2023-05-19T12:28:02;86208.09;;;15.92;67.79
41312;BME280;27061;41.648;24.568;2023-05-19T12:30:31;86042.19;;;14.78;69.88
41312;BME280;27061;41.648;24.568;2023-05-19T12:33:00;86203.59;;;16.05;68.13
41312;BME280;27061;41.648;24.568;2023-05-19T12:35:31;86133.69;;;15.56;59.19
41312;BME280;27061;41.648;24.568;2023-05-19T12:38:03;86113.06;;;15.43;59.82
41312;BME280;27061;41.648;24.568;2023-05-19T12:40:32;86122.13;;;15.43;63.34
41312;BME280;27061;41.648;24.568;2023-05-19T12:43:01;86050.53;;;15.07;58.26
41312;BME280;27061;41.648;24.568;2023-05-19T12:45:33;86186.28;;;16.26;57.31
41312;BME280;27061;41.648;24.568;2023-05-19T12:48:04;86184.22;;;16.24;62.60
41312;BME280;27061;41.648;24.568;2023-05-19T12:50:32;86186.50;;;16.18;64.53
41312;BME280;27061;41.648;24.568;2023-05-19T12:53:10;86142.53;;;15.91;60.48
41312;BME280;27061;41.648;24.568;2023-05-19T12:55:42;85969.25;;;14.69;60.20
41312;BME280;27061;41.648;24.568;2023-05-19T12:58:10;86132.78;;;15.90;61.65
41312;BME280;27061;41.648;24.568;2023-05-19T13:00:41;86145.00;;;16.03;60.50
41312;BME280;27061;41.648;24.568;2023-05-19T13:03:15;86138.63;;;16.07;60.12
41312;BME280;27061;41.648;24.568;2023-05-19T13:05:47;86177.88;;;16.53;62.38
41312;BME280;27061;41.648;24.568;2023-05-19T13:08:19;86137.94;;;16.31;62.22
41312;BME280;27061;41.648;24.568;2023-05-19T13:10:48;86142.38;;;16.47;64.63
41312;BME280;27061;41.648;24.568;2023-05-19T13:13:16;86136.72;;;16.49;58.88
41312;BME280;27061;41.648;24.568;2023-05-19T13:15:45;86127.09;;;16.44;58.66
41312;BME280;27061;41.648;24.568;2023-05-19T13:18:15;86157.22;;;16.66;60.86
41312;BME280;27061;41.648;24.568;2023-05-19T13:20:43;86174.59;;;16.94;65.51
41312;BME280;27061;41.648;24.568;2023-05-19T13:23:11;86052.41;;;15.68;63.04
41312;BME280;27061;41.648;24.568;2023-05-19T13:25:40;86183.03;;;16.92;63.31
41312;BME280;27061;41.648;24.568;2023-05-19T13:28:08;86125.09;;;16.65;58.47
41312;BME280;27061;41.648;24.568;2023-05-19T13:30:36;86171.34;;;17.08;56.30
41312;BME280;27061;41.648;24.568;2023-05-19T13:33:05;86081.47;;;16.52;59.48
41312;BME280;27061;41.648;24.568;2023-05-19T13:35:32;86119.94;;;16.74;61.56